createdAt,value
2018-11-01T00:00:18.428Z,2.10
2018-11-01T00:02:47.175Z,1.90
2018-11-01T00:05:16.715Z,2.20
2018-11-01T00:07:45.496Z,2.10
2018-11-01T00:10:14.240Z,1.93
2018-11-01T00:12:43.650Z,1.87
2018-11-01T00:15:13.289Z,2.10
2018-11-01T00:17:41.784Z,2.37
2018-11-01T00:20:11.827Z,2.90
2018-11-01T00:22:40.638Z,3.00
2018-11-01T00:25:10.946Z,2.93
2018-11-01T00:27:39.751Z,3.20
2018-11-01T00:30:08.620Z,3.50
2018-11-01T00:32:37.072Z,3.50
2018-11-01T00:35:05.669Z,3.23
2018-11-01T00:37:34.406Z,2.87
2018-11-01T00:40:03.043Z,3.17
2018-11-01T00:42:31.498Z,2.83
2018-11-01T00:44:59.946Z,2.73
2018-11-01T00:47:28.400Z,3.13
2018-11-01T00:49:56.810Z,3.07
2018-11-01T00:52:25.258Z,2.90
2018-11-01T00:54:53.918Z,2.90
2018-11-01T00:57:22.372Z,3.10
2018-11-01T00:59:50.852Z,2.80
2018-11-01T01:02:19.611Z,2.87
2018-11-01T01:04:48.064Z,2.40
2018-11-01T01:07:16.512Z,3.27
2018-11-01T01:09:45.239Z,2.63
2018-11-01T01:12:13.712Z,2.90
2018-11-01T01:14:42.164Z,2.80
2018-11-01T01:17:10.599Z,2.60
2018-11-01T01:19:39.047Z,2.77
2018-11-01T01:22:07.466Z,2.53
2018-11-01T01:24:35.940Z,2.93
2018-11-01T01:27:04.406Z,2.67
2018-11-01T01:29:32.905Z,2.70
2018-11-01T01:32:01.400Z,2.50
2018-11-01T01:34:29.960Z,3.00
2018-11-01T01:36:58.367Z,2.57
2018-11-01T01:39:26.803Z,2.87
2018-11-01T01:41:55.235Z,2.40
2018-11-01T01:44:23.686Z,2.57
2018-11-01T01:46:52.123Z,3.27
2018-11-01T01:49:20.572Z,2.83
2018-11-01T01:51:49.266Z,3.47
2018-11-01T01:54:17.728Z,3.20
2018-11-01T01:56:46.192Z,2.90
2018-11-01T01:59:14.640Z,3.00
2018-11-01T02:01:43.384Z,2.80
2018-11-01T02:04:11.838Z,2.43
2018-11-01T02:06:40.258Z,2.67
2018-11-01T02:09:11.787Z,2.93
2018-11-01T02:11:41.384Z,4.37
2018-11-01T02:14:10.178Z,3.00
2018-11-01T02:16:38.749Z,3.27
2018-11-01T02:19:07.723Z,2.67
2018-11-01T02:21:36.167Z,3.10
2018-11-01T02:24:04.662Z,3.20
2018-11-01T02:26:33.109Z,2.90
2018-11-01T02:29:01.636Z,3.00
2018-11-01T02:31:30.149Z,2.80
2018-11-01T02:33:58.544Z,2.73
2018-11-01T02:36:27.142Z,2.83
2018-11-01T02:38:55.566Z,2.93
2018-11-01T02:41:24.007Z,3.20
2018-11-01T02:43:52.449Z,3.20
2018-11-01T02:46:20.882Z,3.00
2018-11-01T02:48:49.318Z,2.73
2018-11-01T02:51:17.767Z,3.53
2018-11-01T02:53:46.191Z,2.87
2018-11-01T02:56:14.639Z,3.17
2018-11-01T02:58:43.090Z,2.90
2018-11-01T03:01:15.732Z,3.23
2018-11-01T03:03:44.147Z,3.27
2018-11-01T03:06:12.636Z,2.93
2018-11-01T03:08:41.061Z,3.10
2018-11-01T03:11:09.783Z,3.20
2018-11-01T03:13:38.232Z,2.83
2018-11-01T03:16:07.122Z,3.00
2018-11-01T03:18:36.075Z,2.80
2018-11-01T03:21:04.538Z,3.50
2018-11-01T03:23:33.358Z,2.70
2018-11-01T03:26:01.963Z,3.53
2018-11-01T03:28:30.382Z,3.30
2018-11-01T03:30:58.878Z,3.03
2018-11-01T03:33:27.305Z,2.50
2018-11-01T03:35:55.763Z,2.80
2018-11-01T03:38:24.547Z,3.40
2018-11-01T03:40:52.983Z,3.17
2018-11-01T03:43:21.432Z,2.97
2018-11-01T03:45:49.878Z,3.17
2018-11-01T03:48:18.584Z,2.50
2018-11-01T03:50:47.367Z,3.20
2018-11-01T03:53:16.076Z,3.17
2018-11-01T03:55:44.528Z,3.17
2018-11-01T03:58:12.968Z,2.93
2018-11-01T04:00:41.414Z,3.70
2018-11-01T04:03:10.082Z,2.90
2018-11-01T04:05:38.531Z,2.90
2018-11-01T04:08:07.174Z,3.23
2018-11-01T04:10:35.617Z,3.20
2018-11-01T04:13:04.078Z,3.50
2018-11-01T04:15:32.781Z,3.07
2018-11-01T04:18:01.520Z,3.03
2018-11-01T04:20:29.963Z,2.60
2018-11-01T04:22:58.407Z,2.83
2018-11-01T04:25:27.472Z,3.13
2018-11-01T04:27:55.941Z,3.07
2018-11-01T04:30:24.330Z,2.37
2018-11-01T04:32:52.769Z,2.57
2018-11-01T04:35:21.264Z,2.83
2018-11-01T04:37:49.667Z,2.50
2018-11-01T04:40:18.810Z,2.83
2018-11-01T04:42:47.475Z,2.70
2018-11-01T04:45:15.986Z,3.20
2018-11-01T04:47:44.496Z,3.50
2018-11-01T04:50:13.197Z,2.90
2018-11-01T04:52:42.604Z,3.70
2018-11-01T04:55:11.035Z,3.00
2018-11-01T04:57:40.391Z,2.70
2018-11-01T05:00:11.187Z,2.77
2018-11-01T05:02:40.053Z,3.10
2018-11-01T05:05:08.545Z,2.83
2018-11-01T05:07:37.417Z,3.20
2018-11-01T05:10:07.111Z,3.67
2018-11-01T05:12:35.600Z,3.30
2018-11-01T05:15:04.209Z,2.80
2018-11-01T05:17:32.675Z,2.77
2018-11-01T05:20:01.151Z,2.60
2018-11-01T05:22:29.671Z,2.77
2018-11-01T05:24:58.120Z,3.60
2018-11-01T05:27:26.591Z,3.60
2018-11-01T05:29:55.041Z,3.20
2018-11-01T05:32:23.505Z,3.73
2018-11-01T05:34:51.970Z,3.90
2018-11-01T05:37:20.427Z,3.23
2018-11-01T05:39:48.875Z,4.00
2018-11-01T05:42:17.672Z,3.50
2018-11-01T05:44:46.416Z,4.03
2018-11-01T05:47:15.140Z,4.30
2018-11-01T05:49:43.595Z,4.10
2018-11-01T05:52:12.068Z,4.27
2018-11-01T05:54:40.539Z,4.27
2018-11-01T05:57:08.997Z,3.70
2018-11-01T05:59:38.034Z,4.37
2018-11-01T06:02:09.050Z,3.70
2018-11-01T06:04:37.459Z,4.53
2018-11-01T06:07:05.956Z,4.13
2018-11-01T06:09:34.375Z,3.87
2018-11-01T06:12:02.817Z,3.77
2018-11-01T06:14:31.241Z,3.63
2018-11-01T06:17:00.490Z,3.40
2018-11-01T06:19:28.908Z,3.50
2018-11-01T06:21:57.381Z,3.60
2018-11-01T06:24:26.082Z,3.47
2018-11-01T06:26:54.545Z,3.50
2018-11-01T06:29:22.955Z,3.90
2018-11-01T06:31:51.399Z,4.33
2018-11-01T06:34:55.074Z,4.00
2018-11-01T06:37:23.554Z,4.60
2018-11-01T06:39:51.963Z,4.47
2018-11-01T06:42:20.675Z,3.90
2018-11-01T06:44:49.143Z,4.00
2018-11-01T06:47:17.834Z,3.90
2018-11-01T06:49:46.496Z,4.07
2018-11-01T06:52:14.956Z,3.40
2018-11-01T06:54:43.404Z,3.97
2018-11-01T06:57:12.198Z,3.60
2018-11-01T06:59:40.607Z,3.80
2018-11-01T07:02:09.041Z,3.50
2018-11-01T07:04:37.782Z,3.63
2018-11-01T07:07:06.258Z,4.20
2018-11-01T07:09:34.682Z,3.70
2018-11-01T07:12:03.133Z,3.63
2018-11-01T07:14:31.860Z,3.80
2018-11-01T07:17:00.674Z,3.50
2018-11-01T07:19:29.399Z,3.43
2018-11-01T07:21:58.138Z,3.90
2018-11-01T07:24:26.892Z,3.63
2018-11-01T07:26:55.353Z,3.77
2018-11-01T07:29:24.087Z,3.53
2018-11-01T07:31:52.509Z,4.43
2018-11-01T07:34:20.959Z,4.10
2018-11-01T07:36:49.388Z,4.00
2018-11-01T07:39:17.876Z,3.60
2018-11-01T07:41:47.267Z,4.10
2018-11-01T07:44:15.706Z,3.43
2018-11-01T07:46:44.455Z,3.90
2018-11-01T07:49:13.580Z,3.73
2018-11-01T07:51:42.072Z,3.50
2018-11-01T07:54:10.515Z,3.90
2018-11-01T07:56:38.987Z,3.53
2018-11-01T07:59:07.779Z,3.70
2018-11-01T08:01:36.527Z,3.73
2018-11-01T08:04:05.367Z,4.30
2018-11-01T08:06:33.775Z,3.90
2018-11-01T08:09:03.132Z,4.10
2018-11-01T08:11:31.622Z,3.63
2018-11-01T08:14:00.044Z,3.97
2018-11-01T08:16:28.503Z,4.00
2018-11-01T08:18:56.957Z,4.03
2018-11-01T08:21:25.362Z,4.43
2018-11-01T08:23:53.809Z,4.03
2018-11-01T08:26:22.231Z,3.50
2018-11-01T08:28:50.658Z,4.00
2018-11-01T08:31:19.090Z,4.07
2018-11-01T08:33:47.550Z,3.90
2018-11-01T08:36:15.975Z,4.53
2018-11-01T08:38:44.420Z,3.57
2018-11-01T08:41:12.852Z,3.60
2018-11-01T08:43:41.305Z,3.80
2018-11-01T08:46:10.846Z,4.03
2018-11-01T08:48:39.307Z,3.90
2018-11-01T08:51:07.743Z,3.37
2018-11-01T08:53:36.196Z,4.03
2018-11-01T08:56:04.659Z,3.20
2018-11-01T08:58:33.185Z,3.30
2018-11-01T09:01:01.634Z,4.13
2018-11-01T09:03:30.116Z,3.90
2018-11-01T09:05:58.655Z,4.33
2018-11-01T09:08:27.144Z,3.70
2018-11-01T09:10:55.572Z,4.00
2018-11-01T09:13:24.105Z,3.77
2018-11-01T09:15:52.520Z,3.93
2018-11-01T09:18:21.266Z,3.90
2018-11-01T09:20:49.724Z,3.10
2018-11-01T09:23:18.198Z,3.93
2018-11-01T09:25:46.696Z,3.80
2018-11-01T09:28:15.412Z,4.10
2018-11-01T09:30:43.864Z,3.90
2018-11-01T09:33:12.634Z,3.47
2018-11-01T09:35:41.145Z,3.80
2018-11-01T09:38:09.902Z,4.23
2018-11-01T09:40:38.363Z,3.70
2018-11-01T09:43:06.816Z,3.63
2018-11-01T09:45:35.949Z,4.03
2018-11-01T09:48:04.412Z,4.07
2018-11-01T09:50:32.854Z,4.00
2018-11-01T09:53:01.535Z,4.67
2018-11-01T09:55:30.332Z,5.40
2018-11-01T09:57:58.736Z,5.57
2018-11-01T10:00:27.531Z,6.43
2018-11-01T10:02:55.965Z,4.70
2018-11-01T10:05:24.406Z,3.67
2018-11-01T10:07:52.844Z,4.03
2018-11-01T10:10:21.311Z,4.00
2018-11-01T10:12:49.717Z,3.93
2018-11-01T10:15:18.226Z,3.60
2018-11-01T10:17:47.088Z,4.23
2018-11-01T10:20:15.586Z,5.07
2018-11-01T10:22:44.354Z,4.37
2018-11-01T10:25:14.213Z,8.27
2018-11-01T10:27:42.919Z,4.00
2018-11-01T10:30:15.688Z,4.70
2018-11-01T10:32:45.005Z,4.20
2018-11-01T10:35:13.726Z,3.87
2018-11-01T10:37:42.148Z,4.17
2018-11-01T10:40:13.951Z,4.20
2018-11-01T10:42:42.399Z,4.33
2018-11-01T10:45:11.124Z,4.90
2018-11-01T10:47:39.967Z,5.30
2018-11-01T10:50:20.615Z,13.03
2018-11-01T10:52:49.098Z,8.23
2018-11-01T10:55:17.571Z,7.23
2018-11-01T10:57:46.034Z,6.90
2018-11-01T11:00:19.874Z,5.73
2018-11-01T11:02:49.492Z,5.07
2018-11-01T11:05:19.219Z,8.47
2018-11-01T11:07:48.067Z,5.53
2018-11-01T11:10:17.423Z,5.60
2018-11-01T11:12:45.903Z,6.00
2018-11-01T11:15:15.027Z,5.87
2018-11-01T11:17:43.479Z,9.90
2018-11-01T11:20:12.695Z,7.90
2018-11-01T11:22:41.095Z,4.63
2018-11-01T11:25:11.052Z,4.47
2018-11-01T11:27:39.803Z,11.17
2018-11-01T11:30:09.388Z,9.73
2018-11-01T11:32:38.162Z,5.57
2018-11-01T11:35:08.367Z,5.70
2018-11-01T11:37:36.843Z,4.80
2018-11-01T11:40:06.703Z,5.10
2018-11-01T11:42:35.161Z,4.17
2018-11-01T11:45:03.676Z,4.00
2018-11-01T11:47:32.108Z,4.93
2018-11-01T11:50:00.559Z,4.10
2018-11-01T11:52:29.024Z,5.03
2018-11-01T11:54:57.530Z,4.87
2018-11-01T11:57:26.223Z,4.93
2018-11-01T11:59:54.738Z,4.20
2018-11-01T12:02:23.234Z,5.10
2018-11-01T12:04:51.644Z,5.67
2018-11-01T12:07:20.114Z,4.87
2018-11-01T12:09:48.571Z,5.40
2018-11-01T12:12:17.039Z,5.10
2018-11-01T12:14:45.722Z,4.50
2018-11-01T12:17:14.194Z,5.83
2018-11-01T12:19:42.638Z,5.57
2018-11-01T12:22:11.448Z,5.73
2018-11-01T12:24:40.299Z,6.10
2018-11-01T12:27:08.763Z,6.70
2018-11-01T12:29:37.232Z,5.97
2018-11-01T12:32:06.190Z,6.23
2018-11-01T12:34:34.642Z,6.17
2018-11-01T12:37:03.359Z,6.23
2018-11-01T12:39:31.819Z,6.70
2018-11-01T12:42:00.303Z,8.10
2018-11-01T12:44:28.843Z,6.10
2018-11-01T12:46:57.303Z,6.43
2018-11-01T12:49:25.767Z,6.20
2018-11-01T12:51:54.253Z,6.73
2018-11-01T12:54:23.071Z,6.13
2018-11-01T12:56:51.764Z,6.57
2018-11-01T12:59:20.204Z,5.77
2018-11-01T13:01:48.987Z,5.03
2018-11-01T13:04:17.448Z,4.70
2018-11-01T13:06:45.895Z,5.20
2018-11-01T13:09:14.783Z,5.10
2018-11-01T13:11:43.591Z,5.20
2018-11-01T13:14:12.288Z,4.40
2018-11-01T13:16:41.075Z,5.83
2018-11-01T13:19:09.487Z,5.53
2018-11-01T13:21:37.945Z,5.60
2018-11-01T13:24:06.405Z,6.20
2018-11-01T13:26:34.838Z,5.67
2018-11-01T13:29:03.328Z,6.47
2018-11-01T13:31:31.842Z,6.83
2018-11-01T13:34:00.628Z,6.87
2018-11-01T13:36:29.089Z,5.10
2018-11-01T13:38:57.487Z,5.20
2018-11-01T13:41:25.929Z,5.60
2018-11-01T13:43:54.658Z,11.10
2018-11-01T13:46:23.138Z,11.43
2018-11-01T13:48:52.339Z,18.47
2018-11-01T13:51:20.763Z,5.90
2018-11-01T13:53:49.204Z,6.00
2018-11-01T13:56:17.689Z,6.40
2018-11-01T13:58:46.355Z,7.40
2018-11-01T14:01:14.794Z,6.50
2018-11-01T14:03:43.475Z,7.37
2018-11-01T14:06:11.959Z,6.90
2018-11-01T14:08:40.482Z,7.20
2018-11-01T14:11:08.979Z,6.90
2018-11-01T14:13:38.119Z,6.27
2018-11-01T14:16:06.812Z,7.13
2018-11-01T14:18:35.292Z,7.40
2018-11-01T14:21:03.753Z,7.60
2018-11-01T14:23:32.213Z,7.07
2018-11-01T14:26:00.661Z,6.87
2018-11-01T14:28:29.163Z,7.03
2018-11-01T14:30:57.698Z,6.80
2018-11-01T14:33:26.101Z,7.00
2018-11-01T14:35:55.152Z,7.80
2018-11-01T14:38:23.937Z,7.33
2018-11-01T14:40:52.391Z,7.10
2018-11-01T14:43:20.857Z,7.00
2018-11-01T14:45:49.334Z,6.17
2018-11-01T14:48:17.825Z,8.30
2018-11-01T14:50:46.568Z,44.30
2018-11-01T14:53:15.881Z,29.17
2018-11-01T14:55:45.049Z,14.20
2018-11-01T14:58:13.542Z,6.90
2018-11-01T15:00:40.808Z,6.67
2018-11-01T15:03:09.537Z,9.70
2018-11-01T15:05:38.215Z,6.50
2018-11-01T15:08:06.654Z,8.83
2018-11-01T15:10:35.104Z,9.53
2018-11-01T15:13:03.549Z,7.40
2018-11-01T15:15:31.994Z,12.00
2018-11-01T15:18:00.430Z,6.40
2018-11-01T15:20:28.868Z,7.30
2018-11-01T15:22:57.303Z,6.30
2018-11-01T15:25:25.744Z,5.50
2018-11-01T15:27:54.504Z,7.43
2018-11-01T15:30:23.006Z,7.37
2018-11-01T15:32:51.424Z,6.50
2018-11-01T15:35:19.861Z,6.47
2018-11-01T15:37:48.294Z,6.30
2018-11-01T15:40:16.769Z,6.27
2018-11-01T15:42:45.199Z,6.00
2018-11-01T15:45:14.492Z,6.50
2018-11-01T15:47:43.326Z,6.10
2018-11-01T15:50:12.961Z,5.20
2018-11-01T15:52:41.780Z,5.90
2018-11-01T15:55:10.329Z,5.60
2018-11-01T15:57:38.888Z,5.90
2018-11-01T16:00:09.550Z,5.87
2018-11-01T16:02:39.587Z,7.50
2018-11-01T16:05:08.234Z,6.93
2018-11-01T16:07:37.270Z,6.83
2018-11-01T16:10:07.215Z,7.30
2018-11-01T16:12:35.873Z,7.97
2018-11-01T16:15:05.176Z,6.10
2018-11-01T16:17:33.602Z,6.70
2018-11-01T16:20:02.175Z,6.53
2018-11-01T16:22:30.495Z,8.60
2018-11-01T16:24:58.955Z,6.70
2018-11-01T16:27:27.412Z,7.00
2018-11-01T16:29:55.890Z,7.33
2018-11-01T16:32:24.323Z,7.63
2018-11-01T16:34:52.776Z,7.20
2018-11-01T16:37:21.385Z,6.70
2018-11-01T16:39:49.687Z,7.70
2018-11-01T16:42:18.254Z,9.53
2018-11-01T16:44:46.713Z,9.60
2018-11-01T16:47:15.199Z,9.37
2018-11-01T16:49:43.621Z,8.77
2018-11-01T16:52:12.111Z,9.77
2018-11-01T16:54:40.577Z,8.33
2018-11-01T16:57:09.219Z,9.83
2018-11-01T16:59:37.678Z,8.80
2018-11-01T17:02:06.560Z,8.10
2018-11-01T17:04:35.330Z,8.30
2018-11-01T17:07:03.798Z,9.27
2018-11-01T17:09:32.244Z,8.50
2018-11-01T17:12:01.052Z,8.70
2018-11-01T17:14:29.498Z,8.50
2018-11-01T17:16:58.020Z,9.70
2018-11-01T17:19:26.738Z,9.40
2018-11-01T17:21:55.218Z,8.13
2018-11-01T17:24:23.668Z,8.33
2018-11-01T17:26:52.239Z,9.27
2018-11-01T17:29:20.684Z,9.90
2018-11-01T17:31:49.450Z,11.10
2018-11-01T17:34:18.025Z,10.80
2018-11-01T17:36:46.393Z,13.00
2018-11-01T17:39:14.852Z,15.83
2018-11-01T17:41:43.328Z,17.97
2018-11-01T17:44:11.786Z,15.50
2018-11-01T17:46:40.878Z,11.73
2018-11-01T17:49:09.926Z,10.50
2018-11-01T17:51:38.416Z,9.27
2018-11-01T17:54:06.979Z,8.60
2018-11-01T17:56:35.483Z,9.73
2018-11-01T17:59:04.494Z,10.20
2018-11-01T18:01:33.307Z,9.87
2018-11-01T18:04:01.788Z,9.20
2018-11-01T18:06:30.595Z,9.60
2018-11-01T18:08:59.091Z,10.20
2018-11-01T18:11:27.559Z,10.00
2018-11-01T18:13:56.037Z,9.80
2018-11-01T18:16:24.478Z,13.50
2018-11-01T18:18:53.220Z,12.93
2018-11-01T18:21:22.158Z,9.97
2018-11-01T18:23:50.714Z,12.33
2018-11-01T18:26:19.183Z,16.90
2018-11-01T18:28:47.992Z,10.50
2018-11-01T18:31:16.522Z,9.97
2018-11-01T18:33:44.931Z,11.37
2018-11-01T18:36:13.649Z,12.70
2018-11-01T18:38:42.378Z,12.80
2018-11-01T18:41:10.867Z,13.30
2018-11-01T18:43:39.433Z,12.80
2018-11-01T18:46:09.066Z,11.47
2018-11-01T18:48:38.044Z,10.10
2018-11-01T18:51:06.528Z,10.90
2018-11-01T18:53:35.297Z,10.20
2018-11-01T18:56:03.814Z,10.90
2018-11-01T18:58:32.310Z,11.40
2018-11-01T19:01:00.787Z,11.27
2018-11-01T19:03:31.471Z,10.80
2018-11-01T19:06:00.946Z,8.47
2018-11-01T19:08:29.766Z,9.60
2018-11-01T19:10:58.223Z,15.13
2018-11-01T19:13:26.786Z,15.67
2018-11-01T19:15:55.267Z,13.87
2018-11-01T19:18:24.059Z,10.27
2018-11-01T19:20:52.543Z,9.97
2018-11-01T19:23:21.107Z,10.03
2018-11-01T19:25:49.555Z,10.20
2018-11-01T19:28:18.029Z,8.80
2018-11-01T19:30:46.824Z,9.80
2018-11-01T19:33:15.327Z,9.37
2018-11-01T19:35:43.792Z,9.93
2018-11-01T19:38:12.278Z,9.23
2018-11-01T19:40:40.764Z,9.60
2018-11-01T19:43:09.254Z,9.90
2018-11-01T19:45:37.727Z,10.10
2018-11-01T19:48:06.524Z,11.23
2018-11-01T19:50:35.231Z,12.30
2018-11-01T19:53:03.725Z,12.67
2018-11-01T19:55:32.612Z,12.90
2018-11-01T19:58:01.079Z,11.23
2018-11-01T20:00:29.592Z,12.17
2018-11-01T20:02:58.047Z,12.37
2018-11-01T20:05:28.572Z,16.00
2018-11-01T20:07:57.236Z,16.40
2018-11-01T20:10:27.551Z,13.97
2018-11-01T20:12:56.582Z,13.27
2018-11-01T20:15:25.206Z,13.40
2018-11-01T20:17:53.783Z,13.20
2018-11-01T20:20:23.423Z,12.43
2018-11-01T20:22:51.878Z,12.20
2018-11-01T20:25:20.355Z,12.73
2018-11-01T20:27:49.073Z,14.57
2018-11-01T20:30:17.761Z,18.23
2018-11-01T20:32:46.504Z,14.80
2018-11-01T20:35:15.812Z,14.20
2018-11-01T20:37:44.505Z,12.80
2018-11-01T20:40:13.295Z,13.47
2018-11-01T20:42:42.595Z,14.53
2018-11-01T20:45:12.387Z,14.50
2018-11-01T20:47:40.862Z,14.43
2018-11-01T20:50:10.757Z,17.50
2018-11-01T20:52:39.177Z,16.30
2018-11-01T20:55:07.747Z,17.67
2018-11-01T20:57:36.602Z,17.73
2018-11-01T21:00:06.132Z,17.97
2018-11-01T21:02:34.908Z,14.40
2018-11-01T21:05:03.480Z,14.67
2018-11-01T21:07:32.097Z,14.60
2018-11-01T21:10:00.580Z,14.57
2018-11-01T21:12:29.036Z,12.67
2018-11-01T21:14:57.505Z,11.30
2018-11-01T21:17:25.960Z,12.10
2018-11-01T21:19:54.480Z,11.63
2018-11-01T21:22:22.927Z,12.07
2018-11-01T21:24:52.023Z,11.70
2018-11-01T21:27:20.776Z,10.67
2018-11-01T21:29:49.222Z,11.80
2018-11-01T21:32:17.682Z,12.50
2018-11-01T21:34:46.155Z,11.50
2018-11-01T21:37:14.633Z,11.00
2018-11-01T21:39:43.363Z,11.80
2018-11-01T21:42:11.823Z,12.10
2018-11-01T21:44:40.468Z,12.80
2018-11-01T21:47:09.426Z,10.90
2018-11-01T21:49:37.888Z,11.40
2018-11-01T21:52:06.570Z,11.70
2018-11-01T21:54:35.320Z,11.80
2018-11-01T21:57:03.834Z,12.93
2018-11-01T21:59:32.341Z,12.93
2018-11-01T22:02:00.790Z,12.40
2018-11-01T22:04:29.231Z,12.57
2018-11-01T22:06:57.701Z,12.17
2018-11-01T22:09:26.189Z,11.37
2018-11-01T22:11:54.605Z,11.20
2018-11-01T22:14:23.079Z,11.40
2018-11-01T22:16:51.793Z,11.37
2018-11-01T22:19:20.555Z,11.67
2018-11-01T22:21:49.024Z,10.73
2018-11-01T22:24:18.171Z,12.33
2018-11-01T22:26:46.878Z,12.50
2018-11-01T22:29:15.599Z,12.13
2018-11-01T22:31:44.040Z,12.90
2018-11-01T22:34:12.491Z,13.13
2018-11-01T22:36:40.927Z,12.10
2018-11-01T22:39:10.392Z,12.53
2018-11-01T22:41:38.882Z,11.67
2018-11-01T22:44:07.308Z,11.53
2018-11-01T22:46:36.088Z,10.80
2018-11-01T22:49:04.567Z,10.47
2018-11-01T22:51:33.302Z,11.80
2018-11-01T22:54:01.815Z,12.17
2018-11-01T22:56:30.227Z,11.23
2018-11-01T22:58:58.781Z,12.03
2018-11-01T23:01:27.277Z,12.20
2018-11-01T23:03:55.747Z,12.97
2018-11-01T23:06:24.281Z,11.80
2018-11-01T23:08:52.734Z,11.13
2018-11-01T23:11:21.207Z,10.13
2018-11-01T23:13:49.937Z,9.13
2018-11-01T23:16:18.430Z,10.30
2018-11-01T23:18:46.895Z,10.97
2018-11-01T23:21:15.380Z,10.23
2018-11-01T23:23:43.835Z,10.43
2018-11-01T23:26:12.380Z,10.20
2018-11-01T23:28:40.754Z,10.07
2018-11-01T23:31:09.241Z,9.40
2018-11-01T23:33:52.649Z,9.93
2018-11-01T23:36:20.332Z,10.30
2018-11-01T23:38:54.175Z,10.70
2018-11-01T23:41:28.062Z,9.63
2018-11-01T23:44:01.959Z,10.70
2018-11-01T23:46:35.774Z,11.03
2018-11-01T23:49:06.522Z,8.93
2018-11-01T23:51:35.339Z,8.70
2018-11-01T23:54:03.807Z,9.23
2018-11-01T23:56:32.652Z,9.50
2018-11-01T23:59:01.115Z,9.00
